Time;durP1;ratioP1;P1;durP2;ratioP2;P2;SDS_P1;SDS_P2;PMS_P1;PMS_P2;Temp;Humidity;BMP_temperature;BMP_pressure;BME280_temperature;BME280_humidity;BME280_pressure;Samples;Min_cycle;Max_cycle;Signal;HPM_P1;HPM_P2
2021/09/09 00:01:36;;;;;;;19.50;10.40;;;14.70;97.30;;;;;;5035670;28;20245;-83
2021/09/09 00:04:02;;;;;;;14.70;7.73;;;14.60;97.30;;;;;;5036238;28;20550;-83
2021/09/09 00:06:27;;;;;;;17.20;8.40;;;14.60;97.30;;;;;;5035516;28;20208;-83
2021/09/09 00:08:53;;;;;;;17.40;7.60;;;14.60;97.30;;;;;;5036504;28;20270;-84
2021/09/09 00:11:19;;;;;;;23.10;9.80;;;14.50;97.30;;;;;;5037318;28;20237;-83
2021/09/09 00:13:44;;;;;;;15.20;8.00;;;14.50;97.30;;;;;;5038015;28;20267;-83
2021/09/09 00:16:11;;;;;;;18.07;9.10;;;14.50;97.30;;;;;;5037956;28;20200;-84
2021/09/09 00:18:37;;;;;;;14.90;9.00;;;14.40;97.30;;;;;;5037419;28;20267;-83
2021/09/09 00:21:03;;;;;;;14.93;8.40;;;14.40;97.30;;;;;;5036624;28;20484;-83
2021/09/09 00:23:29;;;;;;;20.43;9.43;;;14.30;97.30;;;;;;5035584;28;20928;-83
2021/09/09 00:25:55;;;;;;;20.73;9.10;;;14.30;97.30;;;;;;5035793;28;20464;-84
2021/09/09 00:28:20;;;;;;;16.37;8.40;;;14.30;97.30;;;;;;5035716;28;20191;-83
2021/09/09 00:30:46;;;;;;;18.10;9.00;;;14.30;97.30;;;;;;5035606;28;20175;-84
2021/09/09 00:33:11;;;;;;;14.43;8.40;;;14.20;97.30;;;;;;5035706;28;20175;-83
2021/09/09 00:35:37;;;;;;;15.17;8.23;;;14.20;97.30;;;;;;5035312;28;20694;-84
2021/09/09 00:38:04;;;;;;;17.10;7.87;;;14.20;97.30;;;;;;5035170;28;20176;-83
2021/09/09 00:40:29;;;;;;;14.27;7.90;;;14.20;97.30;;;;;;5054211;28;20422;-83
2021/09/09 00:42:55;;;;;;;16.97;8.53;;;14.10;97.30;;;;;;5055051;28;20476;-83
2021/09/09 00:45:20;;;;;;;16.87;8.60;;;14.10;97.30;;;;;;5037180;28;20210;-84
2021/09/09 00:47:46;;;;;;;18.13;9.10;;;14.10;97.30;;;;;;5054244;28;20684;-83
2021/09/09 00:50:12;;;;;;;19.33;9.30;;;14.10;97.30;;;;;;5033605;28;20200;-82
2021/09/09 00:52:41;;;;;;;15.00;8.37;;;14.00;97.30;;;;;;5046125;28;20765;-83
2021/09/09 00:55:07;;;;;;;13.50;7.73;;;14.00;97.30;;;;;;5035620;28;20445;-83
2021/09/09 00:57:34;;;;;;;17.37;9.33;;;13.90;97.30;;;;;;5035023;28;20426;-83
2021/09/09 00:59:59;;;;;;;13.93;8.10;;;13.90;97.30;;;;;;5035123;28;20186;-84
2021/09/09 01:02:25;;;;;;;20.20;8.80;;;13.90;97.30;;;;;;5035306;28;20430;-83
2021/09/09 01:04:50;;;;;;;16.60;8.40;;;13.90;97.30;;;;;;5035280;28;20172;-83
2021/09/09 01:07:16;;;;;;;14.50;8.33;;;13.80;97.30;;;;;;5053428;28;20196;-84
2021/09/09 01:09:43;;;;;;;15.70;8.43;;;13.80;97.30;;;;;;5036000;28;20200;-84
2021/09/09 01:12:08;;;;;;;15.73;8.83;;;13.80;97.30;;;;;;5036586;28;20503;-83
2021/09/09 01:14:34;;;;;;;16.33;8.60;;;13.80;97.30;;;;;;5054730;28;20905;-84
2021/09/09 01:16:59;;;;;;;14.33;8.37;;;13.70;97.30;;;;;;5054123;28;20214;-83
2021/09/09 01:19:25;;;;;;;12.97;8.40;;;13.70;97.30;;;;;;5035307;28;20318;-83
2021/09/09 01:21:50;;;;;;;15.23;8.63;;;13.70;97.30;;;;;;5052757;28;20259;-83
2021/09/09 01:24:21;;;;;;;16.70;8.73;;;13.60;97.30;;;;;;5034968;28;20646;-83
2021/09/09 01:27:02;;;;;;;15.90;8.80;;;13.60;97.30;;;;;;5039220;28;20277;-84
2021/09/09 01:29:39;;;;;;;16.17;8.70;;;13.60;97.30;;;;;;5052036;28;20414;-84
2021/09/09 01:32:06;;;;;;;10.77;7.37;;;13.60;97.30;;;;;;5052607;28;20789;-83
2021/09/09 01:34:32;;;;;;;14.87;8.70;;;13.60;97.30;;;;;;5034319;28;20417;-84
2021/09/09 01:36:58;;;;;;;21.30;9.17;;;13.60;97.30;;;;;;5034575;28;20474;-83
2021/09/09 01:39:25;;;;;;;14.33;9.23;;;13.50;97.30;;;;;;5052847;28;20422;-83
2021/09/09 01:41:55;;;;;;;16.70;8.53;;;13.60;97.30;;;;;;5036160;28;21107;-83
2021/09/09 01:44:22;;;;;;;16.43;8.27;;;13.50;97.30;;;;;;5054043;28;20399;-83
2021/09/09 01:46:48;;;;;;;14.03;7.63;;;13.50;97.30;;;;;;5054365;28;20469;-83
2021/09/09 01:49:14;;;;;;;17.50;8.73;;;13.50;97.30;;;;;;5034589;28;20418;-84
2021/09/09 01:51:40;;;;;;;16.90;9.43;;;13.50;97.30;;;;;;5052479;28;20426;-83
2021/09/09 01:54:06;;;;;;;16.20;8.93;;;13.40;97.30;;;;;;5034849;28;21071;-83
2021/09/09 01:56:32;;;;;;;12.93;8.13;;;13.40;97.30;;;;;;5034443;28;20199;-83
2021/09/09 01:58:57;;;;;;;14.70;8.77;;;13.40;97.30;;;;;;5034414;28;20932;-83
2021/09/09 02:01:23;;;;;;;19.67;8.93;;;13.30;97.30;;;;;;5034381;28;20232;-84
2021/09/09 02:03:49;;;;;;;21.00;8.20;;;13.30;97.30;;;;;;5034731;28;20187;-83
2021/09/09 02:06:15;;;;;;;15.10;8.80;;;13.30;97.30;;;;;;5052323;28;20438;-83
2021/09/09 02:08:41;;;;;;;18.37;8.40;;;13.20;97.30;;;;;;5052954;28;20413;-83
2021/09/09 02:11:08;;;;;;;13.70;8.40;;;13.20;97.30;;;;;;5036025;28;20180;-84
2021/09/09 02:13:34;;;;;;;18.17;8.70;;;13.20;97.30;;;;;;5053632;28;20426;-83
2021/09/09 02:16:00;;;;;;;17.60;9.40;;;13.10;97.30;;;;;;5053750;28;20828;-83
2021/09/09 02:18:25;;;;;;;17.50;9.20;;;13.10;97.30;;;;;;5034959;28;20968;-83
2021/09/09 02:20:51;;;;;;;21.47;8.30;;;13.10;97.30;;;;;;5034388;28;20183;-84
2021/09/09 02:23:16;;;;;;;16.00;8.90;;;13.10;97.30;;;;;;5034135;28;20186;-84
2021/09/09 02:25:42;;;;;;;17.60;9.47;;;13.10;97.30;;;;;;5034886;28;20192;-83
2021/09/09 02:28:07;;;;;;;26.43;9.20;;;13.10;97.30;;;;;;5034155;28;20585;-83
2021/09/09 02:30:33;;;;;;;14.40;8.40;;;13.10;97.30;;;;;;5038009;28;20553;-83
2021/09/09 02:32:59;;;;;;;27.50;10.27;;;13.00;97.30;;;;;;5056160;28;20179;-84
2021/09/09 02:35:24;;;;;;;14.73;9.10;;;13.00;97.30;;;;;;5037886;28;20228;-84
2021/09/09 02:37:50;;;;;;;19.93;8.97;;;13.00;97.30;;;;;;5038590;28;20172;-83
2021/09/09 02:40:16;;;;;;;12.33;7.73;;;13.00;97.30;;;;;;5039349;28;20681;-83
2021/09/09 02:42:42;;;;;;;17.23;8.00;;;13.00;97.30;;;;;;5039876;28;20180;-83
2021/09/09 02:45:09;;;;;;;13.63;8.60;;;12.90;97.30;;;;;;5039481;28;20204;-83
2021/09/09 02:47:35;;;;;;;18.30;9.73;;;12.90;97.30;;;;;;5038778;28;20457;-84
2021/09/09 02:50:00;;;;;;;18.77;9.60;;;12.90;97.30;;;;;;5037837;28;20422;-83
2021/09/09 02:52:27;;;;;;;18.80;9.33;;;12.90;97.30;;;;;;5037717;28;20180;-83
2021/09/09 02:54:52;;;;;;;15.03;8.90;;;12.90;97.30;;;;;;5037685;28;20172;-83
2021/09/09 02:57:18;;;;;;;17.70;9.63;;;12.80;97.30;;;;;;5037852;28;20516;-83
2021/09/09 02:59:43;;;;;;;19.40;9.00;;;12.80;97.30;;;;;;5038124;28;20647;-83
2021/09/09 03:02:09;;;;;;;16.20;8.40;;;12.80;97.30;;;;;;5038738;28;20188;-83
2021/09/09 03:04:35;;;;;;;17.60;9.30;;;12.80;97.30;;;;;;5056332;28;20260;-83
2021/09/09 03:07:00;;;;;;;16.63;9.33;;;12.80;97.30;;;;;;5056306;28;20195;-83
2021/09/09 03:09:26;;;;;;;17.33;9.77;;;12.80;97.30;;;;;;5038894;28;20176;-83
2021/09/09 03:11:51;;;;;;;18.90;9.00;;;12.80;97.30;;;;;;5035308;28;20176;-83
2021/09/09 03:14:17;;;;;;;18.83;9.23;;;12.80;97.30;;;;;;5035520;28;20199;-84
2021/09/09 03:16:43;;;;;;;21.37;9.70;;;12.70;97.30;;;;;;5034766;28;20212;-84
2021/09/09 03:19:09;;;;;;;20.10;8.73;;;12.80;97.30;;;;;;5035058;28;20554;-83
2021/09/09 03:21:34;;;;;;;14.93;8.00;;;12.70;97.30;;;;;;5036696;28;20425;-83
2021/09/09 03:24:00;;;;;;;14.77;8.70;;;12.70;97.30;;;;;;5036799;28;20261;-83
2021/09/09 03:26:26;;;;;;;19.47;8.97;;;12.70;97.30;;;;;;5036950;28;20684;-83
2021/09/09 03:28:51;;;;;;;15.73;8.60;;;12.70;97.30;;;;;;5036957;28;20222;-83
2021/09/09 03:31:16;;;;;;;15.80;8.93;;;12.70;97.30;;;;;;5037273;28;20769;-83
2021/09/09 03:33:42;;;;;;;15.03;8.53;;;12.70;97.30;;;;;;5036980;28;20179;-82
2021/09/09 03:36:07;;;;;;;18.60;9.30;;;12.70;97.30;;;;;;5036753;28;20253;-83
2021/09/09 03:38:33;;;;;;;23.07;9.20;;;12.70;97.30;;;;;;5038281;28;20654;-83
2021/09/09 03:40:58;;;;;;;16.20;9.20;;;12.60;97.30;;;;;;5037666;28;20286;-83
2021/09/09 03:43:24;;;;;;;17.20;10.10;;;12.60;97.30;;;;;;5038379;28;20179;-83
2021/09/09 03:45:49;;;;;;;15.13;9.00;;;12.60;97.30;;;;;;5037546;28;20192;-84
2021/09/09 03:48:15;;;;;;;17.63;9.83;;;12.60;97.30;;;;;;5036993;28;20662;-84
2021/09/09 03:50:40;;;;;;;26.87;9.93;;;12.60;97.30;;;;;;5036630;28;20194;-83
2021/09/09 03:53:06;;;;;;;18.77;10.20;;;12.60;97.30;;;;;;5036373;28;20558;-83
2021/09/09 03:55:32;;;;;;;24.17;10.53;;;12.60;97.30;;;;;;5036200;28;20230;-83
2021/09/09 03:57:57;;;;;;;19.67;9.87;;;12.60;97.30;;;;;;5036521;28;20176;-84
2021/09/09 04:00:23;;;;;;;22.67;10.10;;;12.60;97.30;;;;;;5036393;28;20176;-83
2021/09/09 04:02:48;;;;;;;18.93;9.77;;;12.60;97.30;;;;;;5036430;28;20599;-83
2021/09/09 04:05:14;;;;;;;19.93;10.43;;;12.60;97.30;;;;;;5053945;28;20203;-84
2021/09/09 04:07:39;;;;;;;19.83;9.87;;;12.60;97.30;;;;;;5037385;28;20570;-83
2021/09/09 04:10:06;;;;;;;16.80;10.10;;;12.60;97.30;;;;;;5038034;28;20211;-84
2021/09/09 04:12:31;;;;;;;19.90;10.43;;;12.60;97.30;;;;;;5037834;28;20176;-84
2021/09/09 04:14:58;;;;;;;20.70;10.30;;;12.60;97.30;;;;;;5037554;28;20415;-83
2021/09/09 04:17:24;;;;;;;17.63;9.80;;;12.60;97.30;;;;;;5035892;28;20178;-83
2021/09/09 04:19:49;;;;;;;19.13;10.53;;;12.60;97.30;;;;;;5036410;28;20494;-83
2021/09/09 04:22:15;;;;;;;19.77;10.07;;;12.60;97.30;;;;;;5035954;28;20720;-83
2021/09/09 04:24:40;;;;;;;20.27;10.60;;;12.60;97.30;;;;;;5035524;28;20179;-84
2021/09/09 04:27:06;;;;;;;14.60;9.00;;;12.60;97.30;;;;;;5035568;28;20333;-84
2021/09/09 04:29:31;;;;;;;16.87;10.00;;;12.60;97.30;;;;;;5053560;28;20658;-83
2021/09/09 04:31:57;;;;;;;17.50;10.30;;;12.70;97.30;;;;;;5036234;28;20597;-83
2021/09/09 04:34:23;;;;;;;21.80;11.80;;;12.60;97.30;;;;;;5035641;28;20217;-83
2021/09/09 04:36:48;;;;;;;21.83;10.07;;;12.60;97.30;;;;;;5036459;28;20298;-83
2021/09/09 04:39:14;;;;;;;15.00;9.00;;;12.60;97.30;;;;;;5037979;28;20221;-83
2021/09/09 04:41:40;;;;;;;16.33;9.77;;;12.70;97.30;;;;;;5035928;28;20179;-83
2021/09/09 04:44:06;;;;;;;18.80;10.40;;;12.60;97.30;;;;;;5038013;28;20172;-83
2021/09/09 04:46:32;;;;;;;20.33;10.40;;;12.70;97.30;;;;;;5036211;28;20524;-83
2021/09/09 04:48:58;;;;;;;20.03;10.80;;;12.70;97.30;;;;;;5035253;28;20433;-83
2021/09/09 04:51:24;;;;;;;19.50;10.60;;;12.70;97.30;;;;;;5034350;28;20506;-83
2021/09/09 04:53:49;;;;;;;21.50;11.03;;;12.70;97.30;;;;;;5035233;28;20172;-83
2021/09/09 04:56:15;;;;;;;21.07;9.47;;;12.70;97.30;;;;;;5052781;28;20629;-81
2021/09/09 04:58:40;;;;;;;21.30;11.30;;;12.70;97.30;;;;;;5025257;28;20191;-83
2021/09/09 05:01:06;;;;;;;23.57;10.30;;;12.80;97.30;;;;;;5028927;28;20168;-83
2021/09/09 05:03:32;;;;;;;24.80;10.43;;;12.80;97.30;;;;;;5034219;28;20176;-83
2021/09/09 05:05:58;;;;;;;20.27;10.33;;;12.80;97.30;;;;;;5020998;28;20269;-84
2021/09/09 05:08:23;;;;;;;21.03;11.50;;;12.80;97.30;;;;;;5020501;28;20199;-83
2021/09/09 05:10:49;;;;;;;21.93;12.27;;;12.90;97.30;;;;;;5028065;28;20177;-84
2021/09/09 05:13:14;;;;;;;31.37;12.50;;;12.90;97.30;;;;;;5053625;28;20183;-84
2021/09/09 05:15:40;;;;;;;20.93;10.70;;;12.90;97.30;;;;;;5053415;28;20269;-84
2021/09/09 05:18:05;;;;;;;25.60;11.60;;;13.00;97.30;;;;;;5035363;28;20175;-84
2021/09/09 05:20:31;;;;;;;20.80;11.27;;;13.00;97.30;;;;;;5034630;28;20183;-83
2021/09/09 05:22:57;;;;;;;17.37;10.27;;;13.00;97.30;;;;;;5031024;28;20180;-83
2021/09/09 05:25:22;;;;;;;28.07;11.07;;;13.00;97.30;;;;;;5034395;28;20708;-83
2021/09/09 05:27:48;;;;;;;20.67;11.13;;;13.00;97.30;;;;;;5035262;28;20716;-84
2021/09/09 05:30:14;;;;;;;27.30;12.33;;;13.00;97.30;;;;;;5034077;28;20172;-83
2021/09/09 05:32:39;;;;;;;20.40;10.50;;;13.10;97.30;;;;;;5053358;28;20229;-84
2021/09/09 05:35:06;;;;;;;23.77;12.30;;;13.10;97.30;;;;;;5033183;28;20606;-83
2021/09/09 05:37:31;;;;;;;22.03;11.60;;;13.10;97.30;;;;;;5031312;28;20263;-83
2021/09/09 05:39:57;;;;;;;20.17;11.93;;;13.20;97.30;;;;;;5035288;28;20446;-84
2021/09/09 05:42:24;;;;;;;23.97;11.37;;;13.20;97.30;;;;;;5033808;28;20638;-84
2021/09/09 05:44:50;;;;;;;21.30;11.30;;;13.30;97.30;;;;;;5023123;28;20216;-83
2021/09/09 05:47:15;;;;;;;20.13;11.90;;;13.30;97.30;;;;;;5027796;28;21018;-84
2021/09/09 05:49:41;;;;;;;24.70;12.07;;;13.30;97.30;;;;;;5040317;28;20176;-83
2021/09/09 05:52:06;;;;;;;21.10;10.90;;;13.40;97.30;;;;;;5017331;28;20177;-83
2021/09/09 05:54:33;;;;;;;20.63;11.87;;;13.40;97.30;;;;;;5024000;28;20176;-82
2021/09/09 05:56:59;;;;;;;20.80;11.10;;;13.40;97.30;;;;;;5052662;28;20199;-83
2021/09/09 05:59:24;;;;;;;22.60;11.50;;;13.40;97.30;;;;;;5052954;28;20422;-83
2021/09/09 06:01:50;;;;;;;21.87;11.13;;;13.50;97.30;;;;;;5034057;28;20516;-83
2021/09/09 06:04:19;;;;;;;22.90;12.90;;;13.50;97.30;;;;;;5054166;28;20179;-83
2021/09/09 06:06:45;;;;;;;24.40;11.90;;;13.50;97.30;;;;;;5038449;28;20219;-83
2021/09/09 06:09:11;;;;;;;16.67;10.70;;;13.60;97.30;;;;;;5038176;28;20427;-82
2021/09/09 06:11:37;;;;;;;31.40;12.43;;;13.60;97.30;;;;;;5055751;28;20567;-82
2021/09/09 06:14:03;;;;;;;25.67;12.47;;;13.70;97.30;;;;;;5038091;28;20233;-83
2021/09/09 06:16:28;;;;;;;24.70;12.47;;;13.70;97.30;;;;;;5056287;28;20192;-83
2021/09/09 06:18:54;;;;;;;20.63;11.93;;;13.80;97.30;;;;;;5038401;28;20426;-84
2021/09/09 06:21:20;;;;;;;23.47;12.60;;;13.90;97.30;;;;;;5038279;28;20195;-84
2021/09/09 06:23:45;;;;;;;25.73;12.23;;;14.00;97.30;;;;;;5039336;28;20184;-83
2021/09/09 06:26:11;;;;;;;22.13;12.67;;;14.00;97.30;;;;;;5040031;28;20721;-82
2021/09/09 06:28:36;;;;;;;25.10;12.00;;;14.10;97.30;;;;;;5057652;28;20198;-83
2021/09/09 06:31:02;;;;;;;21.33;11.93;;;14.20;97.30;;;;;;5038069;28;20172;-83
2021/09/09 06:33:27;;;;;;;25.23;12.00;;;14.30;97.30;;;;;;5038429;28;20176;-82
2021/09/09 06:35:53;;;;;;;23.50;12.83;;;14.40;97.30;;;;;;5037758;28;20215;-84
2021/09/09 06:38:18;;;;;;;23.77;11.63;;;14.50;97.30;;;;;;5037781;28;20279;-83
2021/09/09 06:40:44;;;;;;;21.57;12.40;;;14.60;97.30;;;;;;5037535;28;20182;-83
2021/09/09 06:43:10;;;;;;;29.23;12.37;;;14.80;97.30;;;;;;5037250;28;20200;-84
2021/09/09 06:45:35;;;;;;;17.43;10.73;;;14.90;97.30;;;;;;5038022;28;20204;-83
2021/09/09 06:48:01;;;;;;;21.80;12.17;;;15.00;97.30;;;;;;5038003;28;20203;-83
2021/09/09 06:50:26;;;;;;;20.37;10.73;;;15.20;97.30;;;;;;5038483;28;20268;-83
2021/09/09 06:52:52;;;;;;;21.03;10.83;;;15.30;97.30;;;;;;5039455;28;20176;-83
2021/09/09 06:55:17;;;;;;;21.00;10.57;;;15.40;97.30;;;;;;5057277;28;20682;-83
2021/09/09 06:57:43;;;;;;;16.57;9.90;;;15.60;97.30;;;;;;5057259;28;20634;-84
2021/09/09 07:00:09;;;;;;;21.00;9.67;;;15.70;97.30;;;;;;5037195;28;20191;-83
2021/09/09 07:02:34;;;;;;;18.50;9.80;;;15.90;97.30;;;;;;5031082;28;20191;-83
2021/09/09 07:05:00;;;;;;;17.53;10.30;;;16.00;97.30;;;;;;5033827;28;20919;-83
2021/09/09 07:07:25;;;;;;;17.47;9.87;;;16.10;97.30;;;;;;5036467;28;20845;-83
2021/09/09 07:09:51;;;;;;;18.23;9.77;;;16.30;97.30;;;;;;5037053;28;20198;-84
2021/09/09 07:12:16;;;;;;;17.70;9.40;;;16.40;97.30;;;;;;5037090;28;20233;-83
2021/09/09 07:14:42;;;;;;;21.43;9.60;;;16.50;97.30;;;;;;5036158;28;20180;-84
2021/09/09 07:17:07;;;;;;;19.20;9.43;;;16.70;97.30;;;;;;5037369;28;20329;-84
2021/09/09 07:19:33;;;;;;;22.63;10.33;;;16.80;97.30;;;;;;5037866;28;20251;-84
2021/09/09 07:21:58;;;;;;;15.60;9.57;;;17.00;97.30;;;;;;5039054;28;20199;-84
2021/09/09 07:24:24;;;;;;;16.90;9.00;;;17.10;97.30;;;;;;5038412;28;20175;-83
2021/09/09 07:26:50;;;;;;;21.47;9.13;;;17.20;97.30;;;;;;5037473;28;20204;-84
2021/09/09 07:29:16;;;;;;;20.97;9.80;;;17.30;97.30;;;;;;5035944;28;20180;-83
2021/09/09 07:31:43;;;;;;;20.70;9.87;;;17.40;97.30;;;;;;5048030;28;20176;-83
2021/09/09 07:34:09;;;;;;;16.27;9.17;;;17.60;97.30;;;;;;5046276;28;20897;-83
2021/09/09 07:36:34;;;;;;;14.30;8.30;;;17.70;97.30;;;;;;5028108;28;20553;-83
2021/09/09 07:39:00;;;;;;;13.40;8.60;;;17.80;97.30;;;;;;5036854;28;20283;-84
2021/09/09 07:41:25;;;;;;;14.80;8.40;;;18.00;97.30;;;;;;5054350;28;20211;-83
2021/09/09 07:43:51;;;;;;;16.13;8.87;;;18.10;97.30;;;;;;5036825;28;20642;-83
2021/09/09 07:46:16;;;;;;;17.30;9.20;;;18.30;97.30;;;;;;5037476;28;20200;-84
2021/09/09 07:48:42;;;;;;;16.87;8.87;;;18.40;97.30;;;;;;5035797;28;20225;-83
2021/09/09 07:51:07;;;;;;;14.87;8.03;;;18.50;97.30;;;;;;5022467;28;20180;-83
2021/09/09 07:53:36;;;;;;;12.83;7.17;;;18.70;97.30;;;;;;5033773;28;20218;-83
2021/09/09 07:56:04;;;;;;;13.70;8.47;;;18.80;97.30;;;;;;5055293;28;20198;-84
2021/09/09 07:58:29;;;;;;;13.17;7.80;;;18.90;97.30;;;;;;5037057;28;21062;-83
2021/09/09 08:00:55;;;;;;;14.17;8.60;;;19.10;97.30;;;;;;5036638;28;20431;-83
2021/09/09 08:03:20;;;;;;;14.57;8.50;;;19.20;97.30;;;;;;5020429;28;20582;-84
2021/09/09 08:05:46;;;;;;;16.00;7.30;;;19.30;97.30;;;;;;5016771;28;20232;-84
2021/09/09 08:08:11;;;;;;;12.27;7.73;;;19.40;97.30;;;;;;5016849;28;20200;-84
2021/09/09 08:10:37;;;;;;;12.57;7.37;;;19.50;97.30;;;;;;5031310;28;20206;-84
2021/09/09 08:13:02;;;;;;;10.50;7.47;;;19.60;97.30;;;;;;5025384;28;20661;-83
2021/09/09 08:15:28;;;;;;;14.10;8.03;;;19.70;97.30;;;;;;5027552;28;20246;-84
2021/09/09 08:17:54;;;;;;;15.83;7.90;;;19.80;97.30;;;;;;5019339;28;20195;-84
2021/09/09 08:20:19;;;;;;;12.87;7.13;;;19.90;97.30;;;;;;5038949;28;20180;-85
2021/09/09 08:22:45;;;;;;;12.07;7.53;;;20.10;97.30;;;;;;5026652;28;20671;-84
2021/09/09 08:25:11;;;;;;;11.40;6.77;;;20.10;97.30;;;;;;5017262;28;20199;-84
2021/09/09 08:27:37;;;;;;;12.03;6.83;;;20.30;97.30;;;;;;5015376;28;20204;-84
2021/09/09 08:30:04;;;;;;;11.47;6.47;;;20.40;97.30;;;;;;5032126;28;20415;-84
2021/09/09 08:32:30;;;;;;;16.00;7.23;;;20.50;97.30;;;;;;5032070;28;20518;-84
2021/09/09 08:34:56;;;;;;;13.00;7.03;;;20.60;97.30;;;;;;5029392;28;20517;-84
2021/09/09 08:37:23;;;;;;;13.20;7.63;;;20.70;97.30;;;;;;5022029;28;20223;-84
2021/09/09 08:39:49;;;;;;;13.40;7.10;;;20.80;97.30;;;;;;5030443;28;20430;-84
2021/09/09 08:42:16;;;;;;;9.80;6.67;;;20.90;97.30;;;;;;5032333;28;20434;-83
2021/09/09 08:44:42;;;;;;;8.50;6.23;;;21.00;96.70;;;;;;5019764;28;20219;-84
2021/09/09 08:47:10;;;;;;;13.33;6.50;;;21.10;96.70;;;;;;5036674;28;20480;-84
2021/09/09 08:49:36;;;;;;;9.77;6.00;;;21.20;97.10;;;;;;5035424;28;20426;-84
2021/09/09 08:52:04;;;;;;;15.43;7.30;;;21.30;94.10;;;;;;5036016;28;20501;-84
2021/09/09 08:54:30;;;;;;;15.93;6.57;;;21.50;94.10;;;;;;5036128;28;20493;-84
2021/09/09 08:56:55;;;;;;;11.07;6.50;;;21.60;92.20;;;;;;5035836;28;20500;-84
2021/09/09 08:59:21;;;;;;;10.50;6.30;;;21.70;93.00;;;;;;5033577;28;20423;-84
2021/09/09 09:02:01;;;;;;;9.50;5.83;;;21.80;92.00;;;;;;5035084;28;20650;-84
2021/09/09 09:04:27;;;;;;;12.97;6.90;;;22.00;92.60;;;;;;5016804;28;20704;-84
2021/09/09 09:06:52;;;;;;;10.97;5.60;;;22.10;92.40;;;;;;5017389;28;20609;-84
2021/09/09 09:09:20;;;;;;;11.33;6.63;;;22.20;91.70;;;;;;5037264;28;20929;-84
2021/09/09 09:11:50;;;;;;;15.33;6.57;;;22.30;91.90;;;;;;5028973;28;20237;-83
2021/09/09 09:14:18;;;;;;;12.50;5.77;;;22.50;91.00;;;;;;5052420;28;20422;-84
2021/09/09 09:16:57;;;;;;;13.60;5.40;;;22.60;87.20;;;;;;5053711;28;20430;-84
2021/09/09 09:19:41;;;;;;;8.53;5.97;;;22.70;88.10;;;;;;5035209;28;20421;-84
2021/09/09 09:22:13;;;;;;;9.23;6.23;;;22.90;88.90;;;;;;5034512;28;20471;-84
2021/09/09 09:24:47;;;;;;;12.03;5.60;;;23.00;88.00;;;;;;5051789;28;20513;-83
2021/09/09 09:27:15;;;;;;;7.40;5.73;;;23.10;86.10;;;;;;5034782;28;20484;-84
2021/09/09 09:29:56;;;;;;;7.50;5.40;;;23.20;87.40;;;;;;5035533;28;20779;-84
2021/09/09 09:32:22;;;;;;;10.50;6.07;;;23.30;86.90;;;;;;5031746;28;20415;-84
2021/09/09 09:34:48;;;;;;;9.63;6.63;;;23.40;87.50;;;;;;5028679;28;20476;-84
2021/09/09 09:37:22;;;;;;;8.93;6.20;;;23.50;83.50;;;;;;5035517;28;20277;-83
2021/09/09 09:39:48;;;;;;;20.20;6.97;;;23.60;84.60;;;;;;5035338;28;20267;-84
2021/09/09 09:42:14;;;;;;;11.30;6.03;;;23.70;85.60;;;;;;5032413;28;20451;-84
2021/09/09 09:44:44;;;;;;;12.87;6.00;;;23.70;83.90;;;;;;5033504;28;20211;-83
2021/09/09 09:47:16;;;;;;;9.33;5.73;;;23.70;84.10;;;;;;5014810;28;20298;-83
2021/09/09 09:49:43;;;;;;;8.07;5.77;;;23.80;85.80;;;;;;5014724;28;20414;-83
2021/09/09 09:52:17;;;;;;;11.33;6.47;;;23.80;83.20;;;;;;5016829;28;20432;-83
2021/09/09 09:54:51;;;;;;;11.70;6.60;;;23.80;83.80;;;;;;5034743;28;20407;-84
2021/09/09 09:57:16;;;;;;;11.60;6.20;;;23.90;85.90;;;;;;5021053;28;20441;-84
2021/09/09 09:59:42;;;;;;;9.23;6.37;;;24.10;86.80;;;;;;5035747;28;20426;-83
2021/09/09 10:02:10;;;;;;;8.53;6.00;;;24.20;84.90;;;;;;5035408;28;20178;-84
2021/09/09 10:04:36;;;;;;;11.00;6.80;;;24.30;86.20;;;;;;5035389;28;20184;-84
2021/09/09 10:07:01;;;;;;;10.23;5.93;;;24.40;85.90;;;;;;5035680;28;20515;-84
2021/09/09 10:09:28;;;;;;;16.60;6.77;;;24.50;85.70;;;;;;5035460;28;20534;-84
2021/09/09 10:11:53;;;;;;;20.70;7.00;;;24.50;87.40;;;;;;5035126;28;20176;-84
2021/09/09 10:14:25;;;;;;;21.33;7.03;;;24.60;83.90;;;;;;5031092;28;22572;-83
2021/09/09 10:16:53;;;;;;;9.83;7.17;;;24.60;85.80;;;;;;5051922;28;20187;-84
2021/09/09 10:19:28;;;;;;;12.90;6.60;;;24.70;84.90;;;;;;5052126;28;20426;-84
2021/09/09 10:22:14;;;;;;;11.40;7.00;;;24.70;84.30;;;;;;5034113;28;20413;-83
2021/09/09 10:24:44;;;;;;;12.43;6.87;;;24.80;84.00;;;;;;5052788;28;20426;-84
2021/09/09 10:27:18;;;;;;;10.97;6.80;;;24.90;86.10;;;;;;5053570;28;20454;-84
2021/09/09 10:30:02;;;;;;;14.53;7.10;;;25.00;85.10;;;;;;5036493;28;20414;-84
2021/09/09 10:32:33;;;;;;;10.67;6.87;;;25.10;85.10;;;;;;5032052;28;20411;-83
2021/09/09 10:35:17;;;;;;;11.97;6.60;;;25.10;86.20;;;;;;5025768;28;20426;-83
2021/09/09 10:37:47;;;;;;;8.77;6.50;;;25.20;86.20;;;;;;5055839;28;21017;-84
2021/09/09 10:40:31;;;;;;;13.13;6.90;;;25.30;85.00;;;;;;5035390;28;20426;-84
2021/09/09 10:43:13;;;;;;;9.07;6.80;;;25.30;84.40;;;;;;5033293;28;20437;-84
2021/09/09 10:45:41;;;;;;;12.07;6.73;;;25.40;86.40;;;;;;5032133;28;20489;-84
2021/09/09 10:48:09;;;;;;;9.90;6.50;;;25.40;86.40;;;;;;5033779;28;20458;-84
2021/09/09 10:50:36;;;;;;;11.70;6.60;;;25.50;86.80;;;;;;5036591;28;20513;-84
2021/09/09 10:53:09;;;;;;;11.90;6.83;;;25.60;87.20;;;;;;5049009;28;20408;-84
2021/09/09 10:55:40;;;;;;;10.10;6.63;;;25.70;86.90;;;;;;5037032;28;20428;-84
2021/09/09 10:58:15;;;;;;;9.50;6.70;;;25.80;86.10;;;;;;5028681;28;20431;-84
2021/09/09 11:01:02;;;;;;;10.37;6.57;;;25.90;85.50;;;;;;5034245;28;20521;-84
2021/09/09 11:03:47;;;;;;;10.63;6.77;;;25.90;84.40;;;;;;5047248;28;20505;-82
2021/09/09 11:06:15;;;;;;;13.20;6.90;;;25.90;84.80;;;;;;5056026;28;20466;-84
2021/09/09 11:08:44;;;;;;;12.33;7.40;;;26.00;84.30;;;;;;5037032;28;20500;-84
2021/09/09 11:11:18;;;;;;;12.33;6.37;;;26.00;84.50;;;;;;5037097;28;20465;-85
2021/09/09 11:13:44;;;;;;;9.80;6.37;;;26.10;85.80;;;;;;5037086;28;20974;-84
2021/09/09 11:16:20;;;;;;;11.30;6.80;;;26.20;84.80;;;;;;5034708;28;20450;-83
2021/09/09 11:18:46;;;;;;;10.10;6.40;;;26.40;85.40;;;;;;5036200;28;20187;-85
2021/09/09 11:21:16;;;;;;;8.63;6.10;;;26.50;85.40;;;;;;5037895;28;20501;-84
2021/09/09 11:23:42;;;;;;;7.97;6.27;;;26.60;83.80;;;;;;5038548;28;21094;-84
2021/09/09 11:26:20;;;;;;;11.40;6.10;;;26.60;84.30;;;;;;5038790;28;20443;-84
2021/09/09 11:28:47;;;;;;;9.50;6.70;;;26.80;84.50;;;;;;5038023;28;20176;-84
2021/09/09 11:31:23;;;;;;;9.20;6.40;;;26.80;81.90;;;;;;5037950;28;20414;-84
2021/09/09 11:33:54;;;;;;;11.90;6.00;;;26.80;83.30;;;;;;5025685;28;20413;-83
2021/09/09 11:36:28;;;;;;;11.50;7.33;;;26.90;83.60;;;;;;5037136;28;20522;-84
2021/09/09 11:38:55;;;;;;;8.63;6.73;;;26.90;82.30;;;;;;5036966;28;20944;-84
2021/09/09 11:41:23;;;;;;;12.37;6.63;;;26.90;82.10;;;;;;5053228;28;20426;-84
2021/09/09 11:44:03;;;;;;;11.47;6.77;;;26.90;81.70;;;;;;5051001;28;20429;-84
2021/09/09 11:46:37;;;;;;;9.60;6.17;;;27.00;81.40;;;;;;5027137;28;20438;-84
2021/09/09 11:49:04;;;;;;;9.73;6.27;;;27.10;83.60;;;;;;5035985;28;20398;-84
2021/09/09 11:51:33;;;;;;;9.03;6.27;;;27.20;81.50;;;;;;5052596;28;20491;-84
2021/09/09 11:53:58;;;;;;;11.50;7.23;;;27.30;82.60;;;;;;5034555;28;20505;-84
2021/09/09 11:56:24;;;;;;;9.73;6.00;;;27.40;80.20;;;;;;5035789;28;20505;-84
2021/09/09 11:58:50;;;;;;;7.10;5.80;;;27.50;80.40;;;;;;5033988;28;20624;-84
2021/09/09 12:01:16;;;;;;;13.63;6.57;;;27.50;81.90;;;;;;5031562;28;20176;-84
2021/09/09 12:03:46;;;;;;;10.93;6.30;;;27.70;81.60;;;;;;5033498;28;20181;-84
2021/09/09 12:06:15;;;;;;;9.60;6.17;;;27.80;82.00;;;;;;5037316;28;20442;-83
2021/09/09 12:08:44;;;;;;;10.23;6.27;;;27.90;81.90;;;;;;5036586;28;21061;-82
2021/09/09 12:11:12;;;;;;;8.40;5.60;;;28.00;80.70;;;;;;5035170;28;20419;-82
2021/09/09 12:13:39;;;;;;;12.57;6.27;;;28.00;79.80;;;;;;5019086;28;20485;-82
2021/09/09 12:16:23;;;;;;;13.07;6.13;;;27.90;79.60;;;;;;5026239;28;20826;-82
2021/09/09 12:19:01;;;;;;;7.00;5.70;;;27.90;79.90;;;;;;5058538;28;20387;-82
2021/09/09 12:21:27;;;;;;;8.37;6.00;;;28.00;82.30;;;;;;5039426;28;20852;-81
2021/09/09 12:24:00;;;;;;;14.80;6.13;;;28.10;79.70;;;;;;5039382;28;20446;-82
2021/09/09 12:26:26;;;;;;;9.40;5.70;;;28.20;80.10;;;;;;5035274;28;20207;-85
2021/09/09 12:28:52;;;;;;;8.87;6.30;;;28.20;79.90;;;;;;5018991;28;20780;-85
2021/09/09 12:31:35;;;;;;;7.50;5.93;;;28.20;79.90;;;;;;5027581;28;20180;-84
2021/09/09 12:34:08;;;;;;;13.60;6.00;;;28.30;78.80;;;;;;5035163;28;20171;-84
2021/09/09 12:36:46;;;;;;;9.30;5.97;;;28.50;80.90;;;;;;5025756;28;20462;-84